Portada
METAR-TAF:

METAR-TAF

Aeropuertos :

McKinley Park, Alaska, Estados Unidos

latitud: 63-44N, longitud: 148-55W, altitud: 524 m

Observación

El informe se hizo hace 57 minutos, a las 16:56 UTC
Viento 6 kt del norte
Temperatura -24°C
Humedad 76%
Presión 982 hPa
Visibilidad: 16.1 km
Nubes dispersas a una altura de 7500 ft
Cielo cubierto a una altura de 9000 ft

METAR: PAIN 301656Z AUTO 35006KT 10SM SCT075 OVC090 M24/M27 A2899 RMK AO2 SLP886 T12441267 FZRANO

Hora: 08:53 (17:53 UTC)


TAF: falta

Observaciones y pronósticos meteorológicos de más de 4000 aeropuertos (mensajes METAR y TAF).

Los puntos amarillos y rojos representan las estaciones disponibles.

Ponga el ratón en el punto deseado para ver el nombre de la estación.

Haga clic para ver las observaciones y los pronósticos meteorológicos.

Para cambiar el mapa : haga clic en los botones verdes con una cruz de color negro para hacer un zoom, en el botón verde con un guión para alejar o en las flechas verdes para mapas adyacentes.


METAR-TAF: